createdAt,value
2023-04-14T00:00:24.035Z,43.43
2023-04-14T00:01:24.029Z,42.95
2023-04-14T00:02:24.182Z,39.24
2023-04-14T00:03:24.262Z,54.88
2023-04-14T00:04:24.288Z,45.27
2023-04-14T00:05:23.994Z,40.71
2023-04-14T00:06:23.989Z,56.55
2023-04-14T00:07:23.982Z,47.70
2023-04-14T00:08:23.998Z,42.93
2023-04-14T00:09:23.963Z,51.94
2023-04-14T00:10:23.964Z,48.50
2023-04-14T00:11:23.952Z,44.76
2023-04-14T00:12:23.950Z,39.14
2023-04-14T00:13:23.966Z,43.88
2023-04-14T00:14:23.948Z,51.40
2023-04-14T00:15:23.918Z,46.74
2023-04-14T00:16:23.945Z,42.70
2023-04-14T00:17:23.928Z,45.43
2023-04-14T00:18:23.961Z,49.07
2023-04-14T00:19:23.903Z,58.25
2023-04-14T00:20:23.898Z,50.72
2023-04-14T00:21:23.873Z,54.68
2023-04-14T00:22:23.866Z,55.36
2023-04-14T00:23:23.898Z,60.42
2023-04-14T00:24:23.861Z,55.58
2023-04-14T00:25:23.846Z,54.44
2023-04-14T00:26:23.844Z,55.89
2023-04-14T00:27:23.838Z,56.72
2023-04-14T00:28:23.855Z,57.38
2023-04-14T00:29:24.836Z,58.16
2023-04-14T00:30:23.814Z,58.73
2023-04-14T00:31:23.807Z,59.09
2023-04-14T00:32:23.841Z,58.66
2023-04-14T00:33:23.815Z,58.39
2023-04-14T00:34:23.780Z,58.07
2023-04-14T00:35:23.791Z,58.27
2023-04-14T00:36:23.763Z,58.44
2023-04-14T00:37:23.766Z,61.41
2023-04-14T00:38:23.781Z,58.28
2023-04-14T00:39:23.755Z,59.22
2023-04-14T00:40:23.731Z,47.51
2023-04-14T00:41:23.728Z,51.96
2023-04-14T00:42:23.716Z,46.86
2023-04-14T00:43:23.739Z,58.36
2023-04-14T00:44:23.707Z,46.41
2023-04-14T00:45:23.694Z,44.43
2023-04-14T00:46:23.771Z,47.71
2023-04-14T00:47:23.717Z,50.21
2023-04-14T00:48:23.690Z,42.41
2023-04-14T00:49:23.662Z,48.73
2023-04-14T00:50:23.688Z,45.05
2023-04-14T00:51:23.651Z,56.25
2023-04-14T00:52:23.633Z,43.47
2023-04-14T00:53:23.651Z,44.51
2023-04-14T00:54:23.616Z,50.43
2023-04-14T00:55:23.609Z,55.87
2023-04-14T00:56:23.601Z,45.31
2023-04-14T00:57:23.601Z,43.77
2023-04-14T00:58:23.620Z,42.96
2023-04-14T00:59:23.577Z,38.77
2023-04-14T01:00:23.576Z,43.05
2023-04-14T01:01:23.582Z,42.51
2023-04-14T01:02:24.694Z,42.58
2023-04-14T01:03:23.654Z,40.65
2023-04-14T01:04:29.256Z,58.24
2023-04-14T01:05:24.656Z,43.61
2023-04-14T01:06:23.547Z,42.06
2023-04-14T01:07:23.515Z,48.23
2023-04-14T01:08:23.560Z,43.71
2023-04-14T01:09:23.513Z,50.83
2023-04-14T01:10:23.501Z,44.07
2023-04-14T01:11:23.481Z,44.28
2023-04-14T01:12:23.478Z,55.64
2023-04-14T01:13:23.502Z,44.49
2023-04-14T01:14:23.468Z,42.34
2023-04-14T01:15:23.461Z,54.05
2023-04-14T01:16:23.506Z,51.23
2023-04-14T01:17:23.501Z,53.28
2023-04-14T01:18:23.489Z,46.65
2023-04-14T01:19:23.429Z,40.46
2023-04-14T01:20:23.425Z,47.05
2023-04-14T01:21:23.446Z,47.50
2023-04-14T01:22:23.425Z,52.91
2023-04-14T01:23:23.435Z,49.91
2023-04-14T01:24:23.404Z,44.28
2023-04-14T01:25:23.403Z,54.96
2023-04-14T01:26:23.376Z,43.23
2023-04-14T01:27:23.377Z,52.02
2023-04-14T01:28:23.386Z,49.15
2023-04-14T01:29:23.367Z,47.25
2023-04-14T01:30:23.351Z,49.99
2023-04-14T01:31:23.408Z,53.50
2023-04-14T01:32:23.352Z,55.44
2023-04-14T01:33:23.347Z,56.14
2023-04-14T01:34:23.332Z,56.67
2023-04-14T01:35:23.306Z,55.80
2023-04-14T01:36:23.302Z,56.63
2023-04-14T01:37:23.299Z,56.40
2023-04-14T01:38:23.321Z,57.86
2023-04-14T01:39:23.292Z,59.01
2023-04-14T01:40:23.277Z,59.12
2023-04-14T01:41:23.267Z,59.45
2023-04-14T01:42:23.273Z,62.14
2023-04-14T01:43:23.276Z,59.37
2023-04-14T01:44:23.250Z,59.51
2023-04-14T01:45:23.247Z,58.72
2023-04-14T01:46:23.229Z,56.70
2023-04-14T01:47:23.270Z,40.42
2023-04-14T01:48:23.239Z,47.83
2023-04-14T01:49:23.238Z,50.70
2023-04-14T01:50:23.209Z,42.88
2023-04-14T01:51:23.206Z,41.80
2023-04-14T01:52:23.188Z,42.33
2023-04-14T01:53:23.197Z,49.81
2023-04-14T01:54:23.162Z,55.52
2023-04-14T01:55:23.160Z,41.32
2023-04-14T01:56:23.152Z,43.84
2023-04-14T01:57:23.196Z,46.65
2023-04-14T01:58:23.167Z,39.75
2023-04-14T01:59:23.139Z,43.58
2023-04-14T02:00:23.127Z,39.11
2023-04-14T02:01:23.126Z,38.87
2023-04-14T02:02:23.275Z,39.24
2023-04-14T02:03:23.203Z,39.33
2023-04-14T02:04:23.144Z,42.59
2023-04-14T02:05:23.090Z,45.67
2023-04-14T02:06:23.114Z,46.22
2023-04-14T02:07:23.076Z,54.95
2023-04-14T02:08:23.106Z,50.89
2023-04-14T02:09:23.072Z,49.12
2023-04-14T02:10:23.052Z,52.32
2023-04-14T02:11:23.054Z,53.73
2023-04-14T02:12:23.037Z,44.73
2023-04-14T02:13:23.060Z,40.07
2023-04-14T02:14:23.016Z,43.05
2023-04-14T02:15:23.025Z,53.33
2023-04-14T02:16:23.038Z,51.28
2023-04-14T02:17:23.023Z,39.82
2023-04-14T02:18:23.011Z,47.82
2023-04-14T02:19:22.986Z,45.19
2023-04-14T02:20:22.985Z,43.84
2023-04-14T02:21:22.973Z,56.64
2023-04-14T02:22:22.973Z,56.37
2023-04-14T02:23:23.006Z,48.40
2023-04-14T02:24:22.953Z,42.06
2023-04-14T02:25:22.940Z,38.42
2023-04-14T02:26:22.927Z,43.79
2023-04-14T02:27:22.916Z,56.28
2023-04-14T02:28:22.943Z,42.92
2023-04-14T02:29:22.907Z,46.97
2023-04-14T02:30:22.897Z,53.33
2023-04-14T02:31:22.927Z,58.92
2023-04-14T02:32:22.952Z,48.11
2023-04-14T02:33:22.948Z,51.05
2023-04-14T02:34:22.873Z,44.71
2023-04-14T02:35:22.856Z,41.94
2023-04-14T02:36:22.852Z,45.93
2023-04-14T02:37:22.849Z,48.03
2023-04-14T02:38:22.864Z,56.38
2023-04-14T02:39:22.833Z,50.70
2023-04-14T02:40:22.827Z,41.33
2023-04-14T02:41:22.825Z,49.04
2023-04-14T02:42:22.808Z,43.18
2023-04-14T02:43:22.812Z,40.81
2023-04-14T02:44:22.809Z,54.65
2023-04-14T02:45:22.798Z,48.74
2023-04-14T02:46:22.811Z,46.77
2023-04-14T02:47:22.814Z,47.55
2023-04-14T02:48:22.792Z,55.35
2023-04-14T02:49:22.833Z,51.33
2023-04-14T02:50:22.767Z,48.44
2023-04-14T02:51:22.750Z,42.48
2023-04-14T02:52:22.737Z,44.97
2023-04-14T02:53:22.737Z,44.38
2023-04-14T02:54:22.740Z,48.77
2023-04-14T02:55:22.718Z,41.29
2023-04-14T02:56:22.724Z,49.88
2023-04-14T02:57:22.711Z,45.54
2023-04-14T02:58:22.691Z,48.61
2023-04-14T02:59:22.722Z,43.07
2023-04-14T03:00:22.699Z,49.44
2023-04-14T03:01:22.704Z,44.38
2023-04-14T03:02:22.757Z,50.83
2023-04-14T03:03:22.695Z,45.28
2023-04-14T03:04:22.712Z,55.91
2023-04-14T03:05:22.633Z,46.03
2023-04-14T03:06:22.639Z,57.31
2023-04-14T03:07:22.631Z,46.98
2023-04-14T03:08:22.656Z,52.26
2023-04-14T03:09:22.645Z,44.18
2023-04-14T03:10:22.603Z,48.99
2023-04-14T03:11:22.598Z,49.72
2023-04-14T03:12:22.578Z,52.87
2023-04-14T03:13:22.581Z,46.55
2023-04-14T03:14:22.597Z,48.62
2023-04-14T03:15:22.561Z,52.05
2023-04-14T03:16:22.712Z,56.14
2023-04-14T03:17:22.563Z,50.16
2023-04-14T03:18:22.534Z,52.77
2023-04-14T03:19:22.562Z,54.75
2023-04-14T03:20:22.521Z,47.92
2023-04-14T03:21:22.512Z,49.54
2023-04-14T03:22:22.510Z,45.09
2023-04-14T03:23:22.497Z,53.45
2023-04-14T03:24:22.510Z,51.38
2023-04-14T03:25:22.500Z,50.03
2023-04-14T03:26:22.478Z,53.11
2023-04-14T03:27:22.472Z,48.64
2023-04-14T03:28:22.454Z,51.30
2023-04-14T03:29:22.481Z,52.05
2023-04-14T03:30:22.450Z,52.92
2023-04-14T03:31:22.492Z,52.33
2023-04-14T03:32:22.462Z,52.59
2023-04-14T03:33:22.426Z,53.72
2023-04-14T03:34:22.441Z,49.25
2023-04-14T03:35:22.428Z,52.92
2023-04-14T03:36:22.400Z,50.20
2023-04-14T03:37:22.390Z,52.78
2023-04-14T03:38:22.391Z,58.18
2023-04-14T03:39:22.413Z,58.28
2023-04-14T03:40:22.368Z,58.11
2023-04-14T03:41:22.359Z,57.21
2023-04-14T03:42:22.353Z,56.70
2023-04-14T03:43:22.348Z,57.44
2023-04-14T03:44:22.359Z,58.59
2023-04-14T03:45:22.332Z,58.57
2023-04-14T03:46:22.349Z,59.14
2023-04-14T03:47:22.331Z,59.77
2023-04-14T03:48:22.308Z,60.33
2023-04-14T03:49:22.324Z,62.48
2023-04-14T03:50:22.301Z,59.88
2023-04-14T03:51:22.308Z,59.64
2023-04-14T03:52:22.282Z,60.61
2023-04-14T03:53:22.274Z,61.68
2023-04-14T03:54:22.309Z,59.66
2023-04-14T03:55:22.262Z,56.20
2023-04-14T03:56:22.261Z,51.85
2023-04-14T03:57:22.241Z,53.82
2023-04-14T03:58:22.238Z,55.35
2023-04-14T03:59:22.263Z,54.86
2023-04-14T04:00:22.321Z,54.02
2023-04-14T04:01:22.297Z,51.28
2023-04-14T04:02:22.557Z,59.44
2023-04-14T04:03:22.380Z,55.53
2023-04-14T04:04:22.300Z,54.65
2023-04-14T04:05:22.225Z,54.07
2023-04-14T04:06:22.174Z,53.22
2023-04-14T04:07:22.154Z,56.60
2023-04-14T04:08:22.157Z,57.32
2023-04-14T04:09:22.205Z,57.70
2023-04-14T04:10:22.161Z,58.38
2023-04-14T04:11:22.157Z,57.02
2023-04-14T04:12:22.145Z,58.50
2023-04-14T04:13:22.117Z,58.48
2023-04-14T04:14:22.116Z,58.75
2023-04-14T04:15:22.138Z,62.21
2023-04-14T04:16:22.150Z,60.38
2023-04-14T04:17:22.141Z,59.84
2023-04-14T04:18:22.076Z,60.49
2023-04-14T04:19:22.097Z,60.79
2023-04-14T04:20:22.082Z,60.37
2023-04-14T04:21:22.054Z,61.69
2023-04-14T04:22:22.039Z,61.03
2023-04-14T04:23:22.044Z,61.29
2023-04-14T04:24:22.072Z,60.15
2023-04-14T04:25:22.035Z,61.00
2023-04-14T04:26:22.024Z,60.82
2023-04-14T04:27:28.235Z,60.59
2023-04-14T04:28:24.001Z,62.98
2023-04-14T04:29:22.024Z,62.82
2023-04-14T04:30:21.998Z,60.30
2023-04-14T04:31:21.990Z,61.04
2023-04-14T04:32:22.088Z,63.00
2023-04-14T04:33:21.956Z,60.33
2023-04-14T04:34:21.976Z,60.50
2023-04-14T04:35:21.941Z,60.83
2023-04-14T04:36:21.938Z,61.31
2023-04-14T04:37:21.933Z,63.57
2023-04-14T04:38:21.917Z,60.50
2023-04-14T04:39:21.941Z,61.01
2023-04-14T04:40:21.911Z,62.77
2023-04-14T04:41:21.904Z,61.11
2023-04-14T04:42:21.883Z,59.59
2023-04-14T04:43:21.886Z,55.86
2023-04-14T04:44:21.903Z,55.25
2023-04-14T04:45:21.869Z,57.93
2023-04-14T04:46:21.933Z,57.29
2023-04-14T04:47:21.907Z,51.51
2023-04-14T04:48:21.855Z,56.75
2023-04-14T04:49:21.860Z,56.31
2023-04-14T04:50:21.842Z,54.38
2023-04-14T04:51:21.840Z,55.66
2023-04-14T04:52:21.822Z,56.67
2023-04-14T04:55:57.767Z,57.80
2023-04-14T04:56:57.760Z,54.74
2023-04-14T04:57:57.748Z,57.02
2023-04-14T04:58:57.736Z,54.88
2023-04-14T04:59:57.757Z,60.31
2023-04-14T05:00:57.730Z,54.97
2023-04-14T05:01:57.858Z,60.24
2023-04-14T05:02:59.106Z,59.02
2023-04-14T05:03:58.857Z,54.11
2023-04-14T05:04:58.847Z,51.15
2023-04-14T05:05:58.815Z,56.36
2023-04-14T05:06:58.814Z,53.10
2023-04-14T05:07:58.810Z,59.12
2023-04-14T05:08:58.940Z,55.57
2023-04-14T05:09:58.853Z,53.76
2023-04-14T05:10:58.787Z,55.65
2023-04-14T05:11:58.783Z,57.62
2023-04-14T05:12:58.774Z,54.59
2023-04-14T05:13:58.834Z,53.84
2023-04-14T05:14:58.778Z,55.61
2023-04-14T05:15:58.779Z,56.44
2023-04-14T05:16:58.735Z,56.00
2023-04-14T05:17:58.750Z,55.41
2023-04-14T05:18:58.978Z,49.92
2023-04-14T05:19:58.740Z,55.75
2023-04-14T05:20:58.710Z,53.49
2023-04-14T05:21:58.698Z,53.36
2023-04-14T05:22:58.710Z,60.91
2023-04-14T05:23:58.682Z,55.14
2023-04-14T05:24:58.690Z,58.15
2023-04-14T05:26:14.408Z,53.59
2023-04-14T05:27:13.711Z,52.97
2023-04-14T05:28:00.654Z,51.21
2023-04-14T05:28:58.744Z,51.37
2023-04-14T05:29:58.675Z,54.53
2023-04-14T05:31:00.610Z,54.31
2023-04-14T05:31:58.611Z,54.93
2023-04-14T05:32:58.645Z,53.47
2023-04-14T05:33:58.798Z,57.76
2023-04-14T05:34:58.664Z,54.25
2023-04-14T05:35:58.622Z,55.66
2023-04-14T05:36:58.618Z,53.08
2023-04-14T05:37:58.570Z,55.79
2023-04-14T05:38:58.633Z,53.43
2023-04-14T05:39:58.606Z,54.68
2023-04-14T05:40:58.548Z,56.88
2023-04-14T05:41:58.540Z,51.36
2023-04-14T05:42:58.537Z,54.43
2023-04-14T05:43:58.587Z,56.51
2023-04-14T05:44:58.554Z,53.66
2023-04-14T05:45:58.521Z,56.88
2023-04-14T05:46:58.545Z,55.72
2023-04-14T05:47:58.524Z,62.05
2023-04-14T05:48:58.609Z,54.05
2023-04-14T05:49:58.566Z,55.21
2023-04-14T05:50:58.488Z,56.04
2023-04-14T05:51:58.484Z,53.30
2023-04-14T05:52:58.465Z,56.76
2023-04-14T05:53:58.614Z,55.07
2023-04-14T05:54:58.484Z,53.34
2023-04-14T05:55:58.461Z,53.87
2023-04-14T05:56:58.442Z,61.78
2023-04-14T05:57:58.446Z,49.06
2023-04-14T05:58:58.445Z,55.07
2023-04-14T05:59:58.510Z,52.95
2023-04-14T06:00:58.419Z,52.02
2023-04-14T06:01:58.421Z,49.64
2023-04-14T06:02:58.561Z,60.42
2023-04-14T06:03:58.625Z,55.43
2023-04-14T06:04:58.461Z,55.17
2023-04-14T06:05:58.377Z,56.09
2023-04-14T06:06:58.362Z,60.08
2023-04-14T06:07:58.350Z,55.54
2023-04-14T06:08:58.448Z,54.42
2023-04-14T06:09:58.409Z,56.02
2023-04-14T06:10:58.330Z,55.66
2023-04-14T06:11:58.317Z,56.54
2023-04-14T06:12:58.319Z,56.18
2023-04-14T06:13:58.351Z,55.13
2023-04-14T06:14:58.354Z,56.32
2023-04-14T06:15:58.305Z,58.24
2023-04-14T06:16:58.306Z,57.59
2023-04-14T06:17:58.292Z,59.26
2023-04-14T06:18:58.361Z,58.23
2023-04-14T06:19:58.303Z,59.25
2023-04-14T06:20:58.264Z,61.90
2023-04-14T06:21:58.244Z,59.21
2023-04-14T06:22:58.243Z,57.81
2023-04-14T06:23:58.242Z,60.55
2023-04-14T06:24:58.289Z,60.14
2023-04-14T06:25:58.229Z,61.11
2023-04-14T06:26:58.211Z,59.78
2023-04-14T06:27:58.205Z,62.75
2023-04-14T06:28:58.358Z,58.91
2023-04-14T06:29:58.217Z,60.52
2023-04-14T06:30:58.221Z,60.36
2023-04-14T06:31:58.212Z,60.60
2023-04-14T06:32:58.235Z,60.20
2023-04-14T06:33:58.294Z,60.06
2023-04-14T06:34:58.190Z,60.40
2023-04-14T06:35:58.141Z,60.83
2023-04-14T06:36:58.144Z,60.18
2023-04-14T06:37:58.135Z,60.55
2023-04-14T06:38:58.268Z,60.29
2023-04-14T06:39:58.172Z,60.30
2023-04-14T06:40:58.104Z,59.87
2023-04-14T06:41:58.108Z,60.69
2023-04-14T06:42:58.107Z,61.29
2023-04-14T06:43:58.085Z,60.58
2023-04-14T06:44:58.114Z,64.60
2023-04-14T06:45:58.124Z,59.69
2023-04-14T06:46:58.084Z,60.10
2023-04-14T06:47:58.066Z,59.81
2023-04-14T06:48:58.054Z,61.34
2023-04-14T06:49:58.086Z,59.48
2023-04-14T06:50:58.039Z,60.04
2023-04-14T06:51:58.046Z,60.08
2023-04-14T06:52:58.018Z,59.76
2023-04-14T06:53:58.014Z,60.56
2023-04-14T06:54:58.022Z,61.32
2023-04-14T06:55:58.193Z,61.99
2023-04-14T06:57:00.035Z,59.82
2023-04-14T06:57:57.987Z,61.23
2023-04-14T06:58:57.969Z,60.56
2023-04-14T06:59:57.993Z,63.64
2023-04-14T07:00:57.988Z,59.40
2023-04-14T07:01:58.085Z,60.25
2023-04-14T07:02:58.134Z,63.74
2023-04-14T07:03:58.031Z,60.39
2023-04-14T07:04:58.051Z,61.27
2023-04-14T07:05:57.921Z,63.87
2023-04-14T07:06:57.931Z,59.54
2023-04-14T07:07:57.899Z,60.86
2023-04-14T07:08:57.902Z,62.30
2023-04-14T07:09:57.945Z,59.26
2023-04-14T07:10:57.872Z,59.74
2023-04-14T07:11:57.891Z,59.92
2023-04-14T07:12:57.877Z,54.04
2023-04-14T07:13:57.863Z,57.23
2023-04-14T07:14:57.879Z,58.79
2023-04-14T07:15:57.860Z,51.63
2023-04-14T07:16:57.832Z,58.69
2023-04-14T07:17:59.916Z,58.60
2023-04-14T07:18:58.814Z,58.41
2023-04-14T07:19:57.837Z,54.53
2023-04-14T07:20:57.800Z,59.39
2023-04-14T07:21:58.489Z,54.95
2023-04-14T07:22:58.794Z,54.52
2023-04-14T07:23:57.774Z,56.68
2023-04-14T07:24:57.802Z,54.98
2023-04-14T07:25:57.789Z,56.58
2023-04-14T07:26:57.779Z,53.59
2023-04-14T07:28:03.157Z,53.67
2023-04-14T07:28:59.736Z,57.46
2023-04-14T07:29:57.763Z,54.95
2023-04-14T07:30:57.787Z,53.14
2023-04-14T07:31:57.719Z,54.67
2023-04-14T07:32:57.783Z,55.78
2023-04-14T07:33:57.709Z,55.55
2023-04-14T07:34:58.976Z,55.47
2023-04-14T07:36:03.308Z,55.96
2023-04-14T07:36:59.710Z,55.97
2023-04-14T07:37:57.679Z,54.85
2023-04-14T07:38:57.672Z,54.34
2023-04-14T07:39:57.686Z,51.99
2023-04-14T07:40:57.659Z,56.58
2023-04-14T07:41:57.645Z,50.76
2023-04-14T07:42:57.639Z,54.94
2023-04-14T07:43:57.630Z,56.44
2023-04-14T07:44:57.650Z,56.14
2023-04-14T07:45:57.617Z,53.89
2023-04-14T07:46:57.700Z,52.45
2023-04-14T07:47:57.916Z,53.06
2023-04-14T07:48:58.595Z,57.72
2023-04-14T07:49:57.603Z,54.51
2023-04-14T07:50:58.425Z,57.79
2023-04-14T07:51:57.567Z,53.02
2023-04-14T07:52:57.556Z,54.32
2023-04-14T07:53:57.555Z,55.83
2023-04-14T07:54:57.579Z,56.05
2023-04-14T07:55:57.541Z,53.92
2023-04-14T07:56:57.576Z,55.10
2023-04-14T07:57:58.344Z,58.24
2023-04-14T07:58:57.529Z,57.83
2023-04-14T07:59:57.550Z,55.74
2023-04-14T08:00:57.630Z,56.17
2023-04-14T08:01:57.601Z,52.79
2023-04-14T08:02:57.623Z,59.04
2023-04-14T08:03:57.707Z,57.95
2023-04-14T08:04:57.569Z,57.01
2023-04-14T08:05:57.485Z,56.07
2023-04-14T08:06:57.461Z,59.71
2023-04-14T08:07:57.455Z,55.69
2023-04-14T08:08:57.446Z,57.60
2023-04-14T08:09:57.456Z,56.05
2023-04-14T08:10:57.419Z,60.95
2023-04-14T08:11:57.424Z,51.46
2023-04-14T08:12:57.477Z,49.63
2023-04-14T08:13:57.408Z,61.87
2023-04-14T08:14:57.417Z,58.52
2023-04-14T08:15:58.400Z,54.93
2023-04-14T08:16:57.386Z,59.04
2023-04-14T08:17:57.431Z,57.77
2023-04-14T08:18:58.346Z,58.89
2023-04-14T08:19:58.406Z,55.23
2023-04-14T08:20:57.364Z,55.38
2023-04-14T08:21:57.402Z,52.42
2023-04-14T08:22:57.365Z,57.22
2023-04-14T08:23:57.322Z,56.03
2023-04-14T08:24:57.359Z,55.22
2023-04-14T08:25:57.309Z,59.10
2023-04-14T08:26:57.294Z,56.73
2023-04-14T08:27:58.308Z,55.59
2023-04-14T08:28:57.287Z,56.01
2023-04-14T08:29:57.283Z,57.39
2023-04-14T08:30:57.344Z,55.53
2023-04-14T08:31:57.311Z,56.49
2023-04-14T08:32:59.228Z,56.92
2023-04-14T08:33:57.282Z,55.60
2023-04-14T08:35:35.378Z,53.09
2023-04-14T08:35:59.690Z,58.17
2023-04-14T08:36:57.225Z,58.60
2023-04-14T08:37:57.232Z,57.68
2023-04-14T08:38:57.256Z,56.64
2023-04-14T08:39:57.208Z,56.17
2023-04-14T08:40:57.229Z,59.65
2023-04-14T08:41:57.188Z,57.55
2023-04-14T08:42:57.190Z,56.63
2023-04-14T08:43:57.179Z,57.52
2023-04-14T08:44:57.187Z,58.35
2023-04-14T08:45:57.231Z,56.52
2023-04-14T08:46:57.151Z,54.47
2023-04-14T08:47:57.169Z,59.33
2023-04-14T08:48:57.135Z,55.69
2023-04-14T08:49:57.139Z,55.03
2023-04-14T08:50:57.150Z,58.25
2023-04-14T08:51:57.139Z,54.90
2023-04-14T08:52:57.132Z,55.95
2023-04-14T08:53:57.157Z,56.64
2023-04-14T08:54:57.096Z,51.41
2023-04-14T08:55:58.543Z,58.09
2023-04-14T08:56:58.143Z,55.69
2023-04-14T08:57:57.075Z,59.05
2023-04-14T08:58:57.062Z,54.63
2023-04-14T08:59:57.071Z,55.94
2023-04-14T09:00:57.101Z,54.79
2023-04-14T09:01:57.347Z,55.85
2023-04-14T09:02:57.068Z,51.88
2023-04-14T09:03:58.247Z,59.75
2023-04-14T09:04:57.163Z,54.28
2023-04-14T09:05:57.032Z,57.16
2023-04-14T09:06:57.010Z,55.84
2023-04-14T09:07:56.993Z,56.41
2023-04-14T09:08:56.990Z,59.01
2023-04-14T09:09:57.019Z,53.32
2023-04-14T09:10:56.969Z,61.14
2023-04-14T09:11:56.963Z,54.23
2023-04-14T09:12:56.953Z,55.42
2023-04-14T09:13:56.955Z,60.32
2023-04-14T09:14:56.969Z,54.82
2023-04-14T09:15:56.940Z,56.49
2023-04-14T09:16:56.961Z,52.27
2023-04-14T09:17:56.976Z,60.80
2023-04-14T09:18:56.953Z,55.91
2023-04-14T09:20:38.038Z,54.97
2023-04-14T09:21:30.246Z,55.63
2023-04-14T09:21:58.046Z,56.18
2023-04-14T09:22:56.887Z,60.79
2023-04-14T09:23:56.889Z,57.44
2023-04-14T09:24:56.900Z,56.07
2023-04-14T09:25:56.866Z,57.64
2023-04-14T09:26:56.855Z,56.95
2023-04-14T09:27:56.848Z,58.46
2023-04-14T09:28:56.935Z,56.86
2023-04-14T09:29:56.861Z,55.46
2023-04-14T09:30:56.842Z,54.38
2023-04-14T09:31:56.816Z,53.27
2023-04-14T09:32:56.875Z,57.17
2023-04-14T09:33:56.838Z,59.16
2023-04-14T09:34:58.505Z,55.32
2023-04-14T09:35:56.812Z,56.21
2023-04-14T09:36:56.774Z,54.06
2023-04-14T09:37:56.765Z,57.38
2023-04-14T09:38:56.766Z,52.88
2023-04-14T09:39:56.753Z,59.05
2023-04-14T09:40:57.189Z,54.23
2023-04-14T09:41:57.740Z,56.49
2023-04-14T09:42:56.759Z,55.01
2023-04-14T09:43:56.720Z,54.10
2023-04-14T09:44:56.739Z,59.57
2023-04-14T09:45:56.933Z,56.71
2023-04-14T09:46:56.857Z,59.88
2023-04-14T09:47:56.701Z,58.17
2023-04-14T09:48:56.803Z,58.03
2023-04-14T09:49:56.741Z,56.41
2023-04-14T09:50:56.691Z,54.85
2023-04-14T09:51:56.669Z,54.83
2023-04-14T09:52:56.640Z,59.97
2023-04-14T09:53:56.641Z,56.31
2023-04-14T09:54:56.667Z,54.51
2023-04-14T09:55:56.674Z,55.10
2023-04-14T09:56:56.617Z,56.18
2023-04-14T09:57:56.625Z,57.26
2023-04-14T09:58:56.600Z,55.70
2023-04-14T09:59:56.593Z,55.84
2023-04-14T10:00:56.611Z,57.15
2023-04-14T10:01:56.642Z,56.40
2023-04-14T10:02:56.803Z,54.30
2023-04-14T10:03:56.701Z,54.64
2023-04-14T10:04:56.625Z,55.05
2023-04-14T10:05:56.580Z,54.96
2023-04-14T10:06:56.543Z,56.64
2023-04-14T10:07:56.532Z,53.59
2023-04-14T10:08:56.533Z,56.72
2023-04-14T10:09:56.537Z,56.33
2023-04-14T10:10:56.545Z,56.61
2023-04-14T10:11:56.502Z,58.52
2023-04-14T10:12:56.498Z,56.94
2023-04-14T10:13:56.514Z,56.96
2023-04-14T10:14:56.473Z,55.94
2023-04-14T10:15:56.557Z,53.91
2023-04-14T10:16:56.464Z,60.88
2023-04-14T10:17:56.495Z,56.07
2023-04-14T10:18:56.453Z,52.31
2023-04-14T10:19:56.445Z,55.00
2023-04-14T10:20:56.457Z,56.80
2023-04-14T10:21:56.462Z,51.40
2023-04-14T10:22:56.422Z,54.45
2023-04-14T10:23:57.452Z,55.90
2023-04-14T10:24:56.407Z,59.80
2023-04-14T10:25:56.424Z,54.73
2023-04-14T10:26:56.385Z,54.73
2023-04-14T10:27:56.398Z,53.51
2023-04-14T10:28:56.504Z,59.64
2023-04-14T10:29:56.371Z,55.77
2023-04-14T10:30:56.401Z,56.35
2023-04-14T10:31:56.391Z,56.51
2023-04-14T10:32:56.381Z,58.60
2023-04-14T10:33:56.338Z,56.29
2023-04-14T10:34:56.339Z,55.63
2023-04-14T10:35:56.358Z,56.66
2023-04-14T10:36:56.314Z,58.50
2023-04-14T10:37:56.350Z,56.98
2023-04-14T10:38:56.298Z,55.17
2023-04-14T10:39:56.304Z,56.22
2023-04-14T10:40:56.315Z,54.97
2023-04-14T10:41:56.274Z,57.85
2023-04-14T10:42:56.973Z,54.94
2023-04-14T10:43:56.261Z,54.22
2023-04-14T10:44:56.602Z,54.69
2023-04-14T10:45:56.901Z,56.54
2023-04-14T10:46:56.364Z,58.31
2023-04-14T10:47:56.286Z,54.53
2023-04-14T10:48:56.225Z,58.28
2023-04-14T10:49:56.225Z,56.98
2023-04-14T10:50:56.356Z,55.14
2023-04-14T10:51:56.209Z,54.49
2023-04-14T10:52:56.371Z,56.81
2023-04-14T10:54:29.013Z,55.31
2023-04-14T10:54:56.181Z,56.70
2023-04-14T10:55:56.205Z,54.68
2023-04-14T10:56:56.172Z,53.31
2023-04-14T10:57:56.158Z,53.03
2023-04-14T10:58:56.154Z,59.13
2023-04-14T10:59:56.162Z,55.96
2023-04-14T11:00:56.157Z,54.24
2023-04-14T11:01:56.270Z,53.10
2023-04-14T11:02:56.221Z,54.49
2023-04-14T11:03:56.332Z,55.65
2023-04-14T11:04:56.097Z,54.60
2023-04-14T11:05:56.118Z,54.91
2023-04-14T11:06:56.127Z,56.40
2023-04-14T11:07:56.090Z,55.61
2023-04-14T11:08:56.069Z,59.99
2023-04-14T11:09:56.067Z,53.99
2023-04-14T11:10:56.050Z,53.55
2023-04-14T11:11:56.093Z,56.01
2023-04-14T11:12:56.044Z,56.16
2023-04-14T11:13:56.042Z,56.79
2023-04-14T11:14:56.029Z,56.94
2023-04-14T11:15:56.025Z,54.37
2023-04-14T11:17:04.148Z,56.77
2023-04-14T11:17:58.006Z,58.17
2023-04-14T11:18:55.985Z,54.08
2023-04-14T11:19:55.986Z,59.07
2023-04-14T11:20:55.984Z,55.32
2023-04-14T11:21:56.007Z,56.42
2023-04-14T11:22:55.965Z,56.22
2023-04-14T11:23:55.964Z,52.41
2023-04-14T11:24:55.954Z,53.74
2023-04-14T11:25:55.951Z,55.13
2023-04-14T11:26:55.993Z,54.28
2023-04-14T11:27:55.971Z,54.07
2023-04-14T11:28:55.918Z,54.40
2023-04-14T11:29:55.932Z,59.70
2023-04-14T11:30:55.891Z,55.70
2023-04-14T11:31:55.974Z,54.33
2023-04-14T11:32:55.937Z,54.58
2023-04-14T11:33:55.879Z,56.12
2023-04-14T11:34:55.889Z,55.88
2023-04-14T11:35:55.914Z,57.59
2023-04-14T11:36:55.903Z,56.31
2023-04-14T11:37:55.873Z,56.54
2023-04-14T11:38:55.865Z,54.44
2023-04-14T11:39:55.830Z,54.43
2023-04-14T11:40:55.824Z,55.71
2023-04-14T11:41:55.866Z,54.55
2023-04-14T11:42:55.816Z,51.72
2023-04-14T11:43:55.817Z,55.16
2023-04-14T11:44:55.800Z,51.01
2023-04-14T11:45:55.821Z,55.28
2023-04-14T11:46:55.825Z,59.07
2023-04-14T11:47:55.874Z,58.08
2023-04-14T11:48:55.778Z,57.27
2023-04-14T11:49:55.764Z,62.49
2023-04-14T11:50:55.755Z,61.64
2023-04-14T11:51:55.791Z,64.12
2023-04-14T11:52:56.758Z,59.39
2023-04-14T11:53:55.741Z,59.81
2023-04-14T11:54:55.769Z,61.24
2023-04-14T11:55:55.724Z,58.07
2023-04-14T11:56:55.744Z,58.81
2023-04-14T11:57:55.736Z,61.29
2023-04-14T11:58:55.701Z,55.79
2023-04-14T11:59:55.708Z,56.87
2023-04-14T12:00:56.149Z,57.96
2023-04-14T12:01:56.717Z,57.69
2023-04-14T12:02:55.811Z,57.68
2023-04-14T12:03:55.843Z,63.36
2023-04-14T12:04:55.796Z,56.67
2023-04-14T12:05:55.642Z,58.51
2023-04-14T12:06:55.632Z,59.15
2023-04-14T12:07:55.662Z,58.86
2023-04-14T12:08:55.623Z,59.45
2023-04-14T12:09:55.622Z,60.63
2023-04-14T12:10:55.611Z,62.70
2023-04-14T12:11:55.746Z,58.96
2023-04-14T12:12:55.593Z,57.55
2023-04-14T12:13:55.614Z,58.34
2023-04-14T12:14:55.584Z,58.37
2023-04-14T12:15:55.586Z,57.61
2023-04-14T12:16:55.615Z,58.87
2023-04-14T12:17:55.830Z,58.70
2023-04-14T12:18:55.572Z,57.62
2023-04-14T12:19:55.535Z,58.45
2023-04-14T12:20:55.570Z,57.71
2023-04-14T12:21:55.525Z,58.40
2023-04-14T12:22:55.534Z,58.01
2023-04-14T12:23:55.523Z,57.21
2023-04-14T12:24:55.499Z,60.53
2023-04-14T12:25:55.476Z,57.36
2023-04-14T12:26:56.488Z,58.35
2023-04-14T12:27:57.221Z,55.86
2023-04-14T12:28:56.499Z,56.88
2023-04-14T12:29:55.473Z,58.36
2023-04-14T12:30:55.445Z,57.41
2023-04-14T12:31:55.518Z,57.94
2023-04-14T12:32:55.498Z,60.56
2023-04-14T12:33:56.776Z,55.79
2023-04-14T12:34:55.424Z,57.31
2023-04-14T12:35:55.418Z,56.48
2023-04-14T12:36:55.408Z,55.84
2023-04-14T12:37:55.424Z,57.97
2023-04-14T12:38:55.423Z,57.85
2023-04-14T12:39:55.373Z,56.30
2023-04-14T12:40:55.372Z,55.21
2023-04-14T12:41:55.364Z,61.49
2023-04-14T12:42:55.393Z,58.95
2023-04-14T12:43:55.344Z,59.31
2023-04-14T12:44:55.348Z,58.46
2023-04-14T12:45:55.389Z,58.16
2023-04-14T12:46:55.462Z,59.28
2023-04-14T12:47:55.355Z,58.44
2023-04-14T12:48:55.314Z,59.33
2023-04-14T12:49:55.301Z,58.28
2023-04-14T12:50:55.358Z,59.99
2023-04-14T12:51:55.284Z,58.79
2023-04-14T12:52:55.296Z,56.10
2023-04-14T12:53:55.274Z,56.91
2023-04-14T12:54:55.270Z,58.79